createdAt,value
2018-11-27T00:00:35.664Z,24.20
2018-11-27T00:03:06.639Z,25.13
2018-11-27T00:05:37.048Z,24.37
2018-11-27T00:08:06.606Z,23.90
2018-11-27T00:10:37.576Z,25.13
2018-11-27T00:13:07.631Z,22.20
2018-11-27T00:15:37.273Z,25.27
2018-11-27T00:18:06.848Z,23.60
2018-11-27T00:20:36.684Z,25.17
2018-11-27T00:23:06.117Z,24.47
2018-11-27T00:25:36.321Z,22.40
2018-11-27T00:28:05.501Z,24.50
2018-11-27T00:30:34.922Z,25.23
2018-11-27T00:33:04.085Z,22.77
2018-11-27T00:35:33.440Z,24.90
2018-11-27T00:38:02.608Z,23.57
2018-11-27T00:40:31.884Z,24.27
2018-11-27T00:43:01.084Z,24.57
2018-11-27T00:45:30.216Z,25.13
2018-11-27T00:47:59.506Z,24.70
2018-11-27T00:50:29.017Z,24.07
2018-11-27T00:52:58.296Z,25.33
2018-11-27T00:55:27.419Z,24.43
2018-11-27T00:57:56.457Z,25.57
2018-11-27T01:00:26.142Z,25.17
2018-11-27T01:02:55.715Z,24.67
2018-11-27T01:05:25.311Z,25.10
2018-11-27T01:07:54.537Z,24.87
2018-11-27T01:10:26.311Z,25.17
2018-11-27T01:12:55.645Z,26.53
2018-11-27T01:15:24.990Z,22.07
2018-11-27T01:17:58.419Z,24.40
2018-11-27T01:20:28.891Z,21.83
2018-11-27T01:22:58.435Z,23.70
2018-11-27T01:25:27.967Z,25.37
2018-11-27T01:27:56.945Z,22.37
2018-11-27T01:30:26.280Z,22.27
2018-11-27T01:32:55.487Z,24.97
2018-11-27T01:35:25.092Z,23.60
2018-11-27T01:37:55.281Z,22.73
2018-11-27T01:40:26.219Z,24.70
2018-11-27T01:42:56.495Z,23.40
2018-11-27T01:45:26.003Z,24.37
2018-11-27T01:47:55.563Z,25.60
2018-11-27T01:50:24.830Z,25.17
2018-11-27T01:52:54.693Z,22.20
2018-11-27T01:55:24.009Z,24.33
2018-11-27T01:57:53.440Z,22.10
2018-11-27T02:00:25.060Z,23.53
2018-11-27T02:02:54.911Z,24.23
2018-11-27T02:05:24.643Z,24.27
2018-11-27T02:07:53.812Z,24.57
2018-11-27T02:10:23.111Z,25.23
2018-11-27T02:12:53.212Z,24.00
2018-11-27T02:15:25.267Z,24.97
2018-11-27T02:17:54.577Z,23.20
2018-11-27T02:20:23.884Z,22.53
2018-11-27T02:22:53.098Z,22.40
2018-11-27T02:25:27.070Z,24.47
2018-11-27T02:27:56.635Z,23.77
2018-11-27T02:30:27.029Z,23.00
2018-11-27T02:32:56.365Z,23.47
2018-11-27T02:35:26.631Z,23.83
2018-11-27T02:37:56.893Z,22.40
2018-11-27T02:40:26.241Z,23.30
2018-11-27T02:42:55.420Z,25.30
2018-11-27T02:45:25.566Z,23.40
2018-11-27T02:47:55.235Z,24.80
2018-11-27T02:50:25.540Z,25.77
2018-11-27T02:52:54.713Z,22.37
2018-11-27T02:55:25.103Z,24.87
2018-11-27T02:57:54.355Z,25.20
2018-11-27T03:00:25.016Z,23.80
2018-11-27T03:02:54.359Z,24.80
2018-11-27T03:05:32.887Z,25.40
2018-11-27T03:08:02.097Z,24.97
2018-11-27T03:10:31.624Z,23.83
2018-11-27T03:13:00.831Z,25.27
2018-11-27T03:15:30.382Z,24.20
2018-11-27T03:17:59.465Z,23.80
2018-11-27T03:20:28.808Z,24.30
2018-11-27T03:22:58.223Z,24.30
2018-11-27T03:25:27.461Z,24.83
2018-11-27T03:27:56.673Z,24.13
2018-11-27T03:30:27.276Z,25.20
2018-11-27T03:32:56.408Z,22.77
2018-11-27T03:35:26.198Z,23.93
2018-11-27T03:37:55.575Z,24.23
2018-11-27T03:40:27.089Z,23.20
2018-11-27T03:42:56.409Z,25.43
2018-11-27T03:45:25.910Z,24.37
2018-11-27T03:47:55.120Z,23.43
2018-11-27T03:50:25.432Z,24.43
2018-11-27T03:52:54.770Z,23.57
2018-11-27T03:55:24.220Z,25.00
2018-11-27T03:57:53.851Z,23.97
2018-11-27T04:00:26.059Z,23.87
2018-11-27T04:03:12.039Z,26.03
2018-11-27T04:05:42.482Z,24.40
2018-11-27T04:08:11.831Z,24.53
2018-11-27T04:10:42.072Z,23.00
2018-11-27T04:13:11.444Z,25.00
2018-11-27T04:15:40.683Z,24.43
2018-11-27T04:18:10.009Z,23.23
2018-11-27T04:20:39.192Z,24.80
2018-11-27T04:23:08.269Z,24.50
2018-11-27T04:25:37.614Z,24.40
2018-11-27T04:28:08.048Z,24.60
2018-11-27T04:30:37.279Z,25.90
2018-11-27T04:33:06.798Z,25.40
2018-11-27T04:35:35.916Z,24.90
2018-11-27T04:38:05.246Z,25.70
2018-11-27T04:40:34.415Z,24.57
2018-11-27T04:43:03.582Z,25.43
2018-11-27T04:45:32.942Z,23.70
2018-11-27T04:48:02.270Z,26.73
2018-11-27T04:50:31.531Z,26.10
2018-11-27T04:53:09.379Z,26.27
2018-11-27T04:55:38.601Z,25.40
2018-11-27T04:58:07.842Z,24.37
2018-11-27T05:00:37.152Z,26.20
2018-11-27T05:03:07.061Z,24.03
2018-11-27T05:05:36.553Z,24.30
2018-11-27T05:08:06.355Z,24.67
2018-11-27T05:10:35.522Z,26.97
2018-11-27T05:13:04.938Z,25.97
2018-11-27T05:15:34.032Z,22.37
2018-11-27T05:18:03.370Z,25.67
2018-11-27T05:20:32.915Z,27.43
2018-11-27T05:23:02.555Z,26.27
2018-11-27T05:25:31.882Z,25.33
2018-11-27T05:28:01.191Z,24.13
2018-11-27T05:30:30.484Z,25.73
2018-11-27T05:32:59.945Z,24.33
2018-11-27T05:35:31.180Z,23.30
2018-11-27T05:38:01.850Z,25.03
2018-11-27T05:40:31.517Z,24.07
2018-11-27T05:43:04.785Z,26.10
2018-11-27T05:45:34.133Z,24.10
2018-11-27T05:48:03.547Z,24.70
2018-11-27T05:50:32.716Z,24.50
2018-11-27T05:53:02.052Z,24.10
2018-11-27T05:55:31.437Z,24.17
2018-11-27T05:58:00.794Z,25.43
2018-11-27T06:00:30.881Z,23.50
2018-11-27T06:03:01.336Z,25.00
2018-11-27T06:05:30.842Z,21.90
2018-11-27T06:08:00.052Z,24.20
2018-11-27T06:10:30.089Z,23.40
2018-11-27T06:12:59.322Z,25.37
2018-11-27T06:15:28.742Z,23.57
2018-11-27T06:17:59.328Z,24.27
2018-11-27T06:20:28.604Z,23.70
2018-11-27T06:22:58.725Z,23.13
2018-11-27T06:25:30.110Z,24.40
2018-11-27T06:28:01.701Z,24.77
2018-11-27T06:30:32.046Z,23.07
2018-11-27T06:33:01.356Z,22.77
2018-11-27T06:35:33.238Z,26.77
2018-11-27T06:38:03.121Z,23.43
2018-11-27T06:40:32.705Z,24.63
2018-11-27T06:43:02.180Z,24.00
2018-11-27T06:45:31.618Z,23.50
2018-11-27T06:48:01.036Z,23.70
2018-11-27T06:50:30.404Z,22.27
2018-11-27T06:52:59.839Z,22.63
2018-11-27T06:55:29.418Z,22.23
2018-11-27T06:57:59.284Z,20.57
2018-11-27T07:00:29.772Z,19.80
2018-11-27T07:02:59.953Z,19.47
2018-11-27T07:05:29.603Z,22.63
2018-11-27T07:07:59.339Z,19.53
2018-11-27T07:10:31.004Z,20.27
2018-11-27T07:13:03.477Z,20.40
2018-11-27T07:15:32.885Z,20.30
2018-11-27T07:18:02.114Z,20.07
2018-11-27T07:20:31.414Z,20.80
2018-11-27T07:23:00.982Z,19.93
2018-11-27T07:25:30.485Z,17.33
2018-11-27T07:27:59.718Z,19.60
2018-11-27T07:30:29.181Z,17.93
2018-11-27T07:32:58.642Z,20.17
2018-11-27T07:35:27.935Z,18.00
2018-11-27T07:37:57.301Z,18.20
2018-11-27T07:40:28.160Z,19.57
2018-11-27T07:43:00.739Z,17.67
2018-11-27T07:45:29.997Z,17.80
2018-11-27T07:47:59.427Z,15.40
2018-11-27T07:50:28.616Z,17.10
2018-11-27T07:52:57.992Z,17.77
2018-11-27T07:55:27.495Z,17.23
2018-11-27T07:57:57.014Z,17.13
2018-11-27T08:00:27.449Z,16.83
2018-11-27T08:02:58.212Z,15.90
2018-11-27T08:05:39.562Z,16.27
2018-11-27T08:08:11.553Z,16.67
2018-11-27T08:10:41.183Z,14.57
2018-11-27T08:13:11.186Z,15.13
2018-11-27T08:15:40.660Z,15.63
2018-11-27T08:18:10.520Z,14.20
2018-11-27T08:20:39.827Z,14.20
2018-11-27T08:23:10.079Z,15.60
2018-11-27T08:25:39.492Z,15.30
2018-11-27T08:28:08.749Z,16.33
2018-11-27T08:30:38.034Z,16.00
2018-11-27T08:33:08.014Z,16.10
2018-11-27T08:35:37.363Z,16.50
2018-11-27T08:38:07.484Z,15.50
2018-11-27T08:40:36.776Z,14.20
2018-11-27T08:43:06.867Z,15.70
2018-11-27T08:45:36.237Z,14.70
2018-11-27T08:48:05.774Z,14.87
2018-11-27T08:50:35.263Z,14.50
2018-11-27T08:53:06.809Z,14.33
2018-11-27T08:55:40.409Z,14.40
2018-11-27T08:58:16.955Z,14.40
2018-11-27T09:00:46.337Z,14.50
2018-11-27T09:03:15.591Z,13.03
2018-11-27T09:05:45.182Z,14.43
2018-11-27T09:08:14.656Z,13.60
2018-11-27T09:10:44.195Z,12.90
2018-11-27T09:13:13.690Z,14.20
2018-11-27T09:15:43.308Z,13.83
2018-11-27T09:18:17.419Z,13.70
2018-11-27T09:20:46.844Z,14.20
2018-11-27T09:23:16.376Z,14.73
2018-11-27T09:25:46.288Z,15.57
2018-11-27T09:28:15.637Z,14.20
2018-11-27T09:30:45.042Z,13.90
2018-11-27T09:33:14.613Z,14.30
2018-11-27T09:35:43.983Z,14.17
2018-11-27T09:38:13.424Z,13.37
2018-11-27T09:40:43.008Z,14.67
2018-11-27T09:43:12.612Z,14.63
2018-11-27T09:45:43.146Z,14.30
2018-11-27T09:48:12.685Z,14.20
2018-11-27T09:50:42.270Z,15.23
2018-11-27T09:53:13.070Z,13.70
2018-11-27T09:55:42.461Z,15.13
2018-11-27T09:58:11.936Z,14.97
2018-11-27T10:00:42.361Z,14.93
2018-11-27T10:03:13.219Z,14.40
2018-11-27T10:05:42.819Z,15.73
2018-11-27T10:08:12.474Z,13.27
2018-11-27T10:10:41.614Z,14.60
2018-11-27T10:13:11.015Z,14.87
2018-11-27T10:15:40.904Z,13.27
2018-11-27T10:18:10.107Z,14.93
2018-11-27T10:20:40.875Z,14.37
2018-11-27T10:23:13.814Z,14.20
2018-11-27T10:25:43.241Z,14.40
2018-11-27T10:28:12.992Z,14.90
2018-11-27T10:30:42.429Z,15.10
2018-11-27T10:33:12.679Z,13.43
2018-11-27T10:35:50.056Z,14.60
2018-11-27T10:38:19.567Z,14.93
2018-11-27T10:40:48.833Z,13.07
2018-11-27T10:45:48.322Z,13.40
2018-11-27T10:46:09.006Z,14.13
2018-11-27T10:48:17.861Z,13.90
2018-11-27T10:50:47.420Z,14.27
2018-11-27T10:53:16.842Z,14.77
2018-11-27T10:55:46.411Z,13.67
2018-11-27T10:58:16.097Z,13.47
2018-11-27T11:00:50.843Z,13.70
2018-11-27T11:03:50.429Z,14.00
2018-11-27T11:06:20.094Z,13.03
2018-11-27T11:08:49.629Z,13.93
2018-11-27T11:11:19.789Z,13.60
2018-11-27T11:13:49.197Z,12.57
2018-11-27T11:16:18.601Z,12.90
2018-11-27T11:18:48.344Z,14.17
2018-11-27T11:21:17.485Z,14.27
2018-11-27T11:23:47.172Z,13.87
2018-11-27T11:26:16.515Z,14.47
2018-11-27T11:28:46.102Z,14.40
2018-11-27T11:31:15.556Z,13.37
2018-11-27T11:33:46.085Z,13.37
2018-11-27T11:36:15.538Z,13.30
2018-11-27T11:38:45.137Z,13.70
2018-11-27T11:41:14.749Z,13.60
2018-11-27T11:43:44.228Z,12.37
2018-11-27T11:46:13.522Z,13.73
2018-11-27T11:48:42.974Z,14.37
2018-11-27T11:51:12.253Z,13.87
2018-11-27T11:53:41.603Z,13.90
2018-11-27T11:56:12.224Z,13.37
2018-11-27T11:58:41.511Z,12.60
2018-11-27T12:01:11.913Z,12.47
2018-11-27T12:03:41.332Z,14.40
2018-11-27T12:06:10.613Z,13.70
2018-11-27T12:08:40.068Z,12.40
2018-11-27T12:11:09.574Z,13.83
2018-11-27T12:13:38.960Z,12.97
2018-11-27T12:16:08.187Z,11.90
2018-11-27T12:18:37.432Z,11.77
2018-11-27T12:21:07.007Z,13.83
2018-11-27T12:23:36.630Z,13.00
2018-11-27T12:26:06.351Z,13.03
2018-11-27T12:28:35.777Z,10.70
2018-11-27T12:31:05.989Z,11.67
2018-11-27T12:33:35.418Z,13.40
2018-11-27T12:36:05.627Z,12.03
2018-11-27T12:38:34.887Z,12.30
2018-11-27T12:41:04.342Z,11.60
2018-11-27T12:43:33.728Z,12.70
2018-11-27T12:46:03.178Z,9.43
2018-11-27T12:48:32.455Z,11.67
2018-11-27T12:51:01.825Z,10.43
2018-11-27T12:53:31.461Z,11.93
2018-11-27T12:56:01.020Z,11.20
2018-11-27T12:58:30.346Z,13.17
2018-11-27T13:00:59.761Z,12.70
2018-11-27T13:03:28.935Z,13.03
2018-11-27T13:05:58.253Z,11.77
2018-11-27T13:08:27.647Z,12.37
2018-11-27T13:10:56.843Z,11.57
2018-11-27T13:13:26.243Z,13.17
2018-11-27T13:15:55.684Z,12.03
2018-11-27T13:18:24.881Z,12.53
2018-11-27T13:20:54.499Z,12.33
2018-11-27T13:23:24.053Z,10.90
2018-11-27T13:25:53.513Z,10.90
2018-11-27T13:28:23.693Z,13.00
2018-11-27T13:30:56.685Z,12.10
2018-11-27T13:33:31.349Z,12.17
2018-11-27T13:36:00.891Z,12.93
2018-11-27T13:38:30.635Z,11.63
2018-11-27T13:41:00.222Z,12.80
2018-11-27T13:43:30.352Z,11.43
2018-11-27T13:46:00.729Z,12.67
2018-11-27T13:48:30.184Z,12.80
2018-11-27T13:50:59.530Z,12.70
2018-11-27T13:53:28.857Z,12.00
2018-11-27T13:55:58.462Z,12.33
2018-11-27T13:58:27.967Z,10.83
2018-11-27T14:00:57.386Z,12.30
2018-11-27T14:03:26.720Z,10.73
2018-11-27T14:05:56.191Z,11.23
2018-11-27T14:08:25.617Z,11.67
2018-11-27T14:11:01.765Z,10.70
2018-11-27T14:13:31.131Z,10.10
2018-11-27T14:16:00.418Z,12.03
2018-11-27T14:18:29.863Z,11.60
2018-11-27T14:20:59.195Z,9.90
2018-11-27T14:23:28.554Z,10.47
2018-11-27T14:25:57.936Z,13.17
2018-11-27T14:28:27.454Z,11.37
2018-11-27T14:30:56.891Z,12.70
2018-11-27T14:33:26.434Z,11.40
2018-11-27T14:35:55.914Z,12.10
2018-11-27T14:38:25.268Z,11.60
2018-11-27T14:40:55.016Z,10.37
2018-11-27T14:43:24.346Z,11.00
2018-11-27T14:45:53.722Z,11.27
2018-11-27T14:48:23.332Z,10.50
2018-11-27T14:50:52.711Z,12.03
2018-11-27T14:53:22.124Z,11.87
2018-11-27T14:55:51.559Z,10.50
2018-11-27T14:58:20.813Z,11.10
2018-11-27T15:00:50.222Z,11.60
2018-11-27T15:03:19.486Z,12.47
2018-11-27T15:05:48.715Z,11.60
2018-11-27T15:08:18.113Z,11.97
2018-11-27T15:10:47.436Z,10.57
2018-11-27T15:13:16.629Z,10.83
2018-11-27T15:15:46.018Z,12.33
2018-11-27T15:18:15.422Z,12.73
2018-11-27T15:20:44.586Z,13.57
2018-11-27T15:23:13.849Z,12.70
2018-11-27T15:25:43.050Z,13.30
2018-11-27T15:28:12.321Z,13.93
2018-11-27T15:30:41.729Z,12.57
2018-11-27T15:33:10.828Z,14.33
2018-11-27T15:35:40.225Z,12.60
2018-11-27T15:38:09.565Z,14.63
2018-11-27T15:40:39.853Z,13.60
2018-11-27T15:43:09.552Z,12.50
2018-11-27T15:45:38.683Z,14.33
2018-11-27T15:48:09.186Z,14.00
2018-11-27T15:50:38.484Z,12.10
2018-11-27T15:53:07.752Z,12.43
2018-11-27T15:55:38.646Z,14.07
2018-11-27T15:58:14.141Z,14.10
2018-11-27T16:00:44.270Z,14.10
2018-11-27T16:03:13.659Z,13.77
2018-11-27T16:05:44.658Z,14.40
2018-11-27T16:08:14.404Z,13.03
2018-11-27T16:10:43.718Z,13.60
2018-11-27T16:13:12.811Z,13.70
2018-11-27T16:15:42.186Z,14.10
2018-11-27T16:18:11.402Z,13.70
2018-11-27T16:20:40.674Z,14.40
2018-11-27T16:23:10.000Z,13.93
2018-11-27T16:25:39.506Z,13.50
2018-11-27T16:28:08.746Z,14.60
2018-11-27T16:30:38.416Z,14.00
2018-11-27T16:33:07.999Z,14.27
2018-11-27T16:35:37.397Z,13.90
2018-11-27T16:38:07.574Z,12.90
2018-11-27T16:40:38.351Z,14.57
2018-11-27T16:43:08.126Z,13.80
2018-11-27T16:45:37.764Z,14.10
2018-11-27T16:48:07.237Z,14.23
2018-11-27T16:50:36.512Z,15.60
2018-11-27T16:53:06.312Z,13.90
2018-11-27T16:55:35.587Z,14.77
2018-11-27T16:58:04.977Z,12.90
2018-11-27T17:00:35.213Z,13.70
2018-11-27T17:03:05.504Z,13.20
2018-11-27T17:05:41.661Z,12.80
2018-11-27T17:08:11.073Z,12.40
2018-11-27T17:10:43.155Z,12.53
2018-11-27T17:13:13.469Z,12.70
2018-11-27T17:15:42.645Z,13.47
2018-11-27T17:18:12.719Z,13.50
2018-11-27T17:20:43.859Z,12.87
2018-11-27T17:23:15.350Z,12.20
2018-11-27T17:25:44.784Z,11.97
2018-11-27T17:28:24.110Z,12.37
2018-11-27T17:30:59.013Z,11.87
2018-11-27T17:34:02.508Z,12.30
2018-11-27T17:36:31.944Z,11.97
2018-11-27T17:39:01.152Z,13.10
2018-11-27T17:41:30.613Z,11.57
2018-11-27T17:44:00.068Z,11.97
2018-11-27T17:46:29.383Z,10.63
2018-11-27T17:48:58.614Z,12.83
2018-11-27T17:51:28.133Z,11.50
2018-11-27T17:53:57.248Z,11.17
2018-11-27T17:56:26.782Z,13.17
2018-11-27T17:58:56.303Z,11.17
2018-11-27T18:01:25.734Z,10.97
2018-11-27T18:03:55.067Z,11.93
2018-11-27T18:06:24.502Z,11.93
2018-11-27T18:08:53.903Z,11.07
2018-11-27T18:11:23.362Z,10.40
2018-11-27T18:13:52.744Z,11.27
2018-11-27T18:16:21.957Z,10.53
2018-11-27T18:18:51.785Z,11.47
2018-11-27T18:21:21.238Z,12.00
2018-11-27T18:23:50.475Z,11.37
2018-11-27T18:26:19.827Z,10.80
2018-11-27T18:28:49.165Z,12.57
2018-11-27T18:31:18.612Z,11.27
2018-11-27T18:33:47.781Z,11.93
2018-11-27T18:36:17.875Z,11.63
2018-11-27T18:38:47.036Z,12.03
2018-11-27T18:41:16.701Z,13.80
2018-11-27T18:43:46.167Z,11.03
2018-11-27T18:46:15.542Z,10.67
2018-11-27T18:48:45.097Z,13.27
2018-11-27T18:51:14.313Z,10.80
2018-11-27T18:53:43.588Z,13.17
2018-11-27T18:56:12.902Z,13.10
2018-11-27T18:58:42.232Z,13.53
2018-11-27T19:01:11.465Z,11.23
2018-11-27T19:03:40.989Z,12.70
2018-11-27T19:06:10.424Z,12.63
2018-11-27T19:08:39.906Z,12.20
2018-11-27T19:11:09.051Z,12.40
2018-11-27T19:13:38.529Z,14.33
2018-11-27T19:16:08.723Z,11.47
2018-11-27T19:18:38.101Z,13.60
2018-11-27T19:21:07.875Z,13.70
2018-11-27T19:23:37.282Z,14.33
2018-11-27T19:26:07.224Z,12.87
2018-11-27T19:28:36.685Z,13.63
2018-11-27T19:31:06.074Z,13.70
2018-11-27T19:33:35.521Z,13.60
2018-11-27T19:36:04.898Z,14.27
2018-11-27T19:38:34.239Z,13.63
2018-11-27T19:41:03.635Z,14.23
2018-11-27T19:43:33.086Z,13.17
2018-11-27T19:46:02.493Z,14.43
2018-11-27T19:48:32.060Z,13.30
2018-11-27T19:51:01.630Z,15.70
2018-11-27T19:53:31.170Z,12.27
2018-11-27T19:56:00.626Z,13.27
2018-11-27T19:58:29.827Z,13.63
2018-11-27T20:00:59.208Z,13.37
2018-11-27T20:03:28.732Z,15.43
2018-11-27T20:05:58.488Z,12.57
2018-11-27T20:08:27.883Z,13.10
2018-11-27T20:10:57.283Z,14.10
2018-11-27T20:13:26.653Z,14.03
2018-11-27T20:15:56.229Z,15.33
2018-11-27T20:18:25.632Z,12.83
2018-11-27T20:20:54.942Z,13.80
2018-11-27T20:23:24.152Z,14.80
2018-11-27T20:25:53.695Z,13.80
2018-11-27T20:28:23.031Z,13.90
2018-11-27T20:30:52.960Z,15.23
2018-11-27T20:33:22.436Z,14.10
2018-11-27T20:35:51.834Z,14.50
2018-11-27T20:38:21.236Z,14.40
2018-11-27T20:40:50.722Z,14.47
2018-11-27T20:43:21.156Z,15.07
2018-11-27T20:45:50.652Z,14.67
2018-11-27T20:48:20.384Z,14.53
2018-11-27T20:50:50.814Z,13.10
2018-11-27T20:53:20.295Z,14.70
2018-11-27T20:55:49.792Z,14.67
2018-11-27T20:58:19.309Z,14.07
2018-11-27T21:00:50.064Z,13.43
2018-11-27T21:03:19.598Z,15.63
2018-11-27T21:05:49.083Z,16.30
2018-11-27T21:08:18.448Z,14.47
2018-11-27T21:10:47.825Z,16.67
2018-11-27T21:13:17.191Z,16.10
2018-11-27T21:15:46.845Z,14.67
2018-11-27T21:18:16.451Z,15.50
2018-11-27T21:20:46.329Z,14.03
2018-11-27T21:23:15.661Z,16.80
2018-11-27T21:25:45.175Z,15.23
2018-11-27T21:28:19.297Z,14.20
2018-11-27T21:30:51.786Z,14.03
2018-11-27T21:33:21.524Z,16.07
2018-11-27T21:35:51.177Z,15.87
2018-11-27T21:38:20.547Z,16.20
2018-11-27T21:40:49.988Z,17.00
2018-11-27T21:43:19.241Z,16.23
2018-11-27T21:45:48.862Z,13.90
2018-11-27T21:48:18.255Z,17.30
2018-11-27T21:50:47.859Z,16.90
2018-11-27T21:53:17.678Z,15.63
2018-11-27T21:55:47.321Z,15.87
2018-11-27T21:58:16.801Z,15.83
2018-11-27T22:00:46.205Z,15.83
2018-11-27T22:03:15.406Z,16.60
2018-11-27T22:05:45.129Z,15.77
2018-11-27T22:08:14.489Z,15.83
2018-11-27T22:10:44.110Z,15.77
2018-11-27T22:13:14.625Z,17.03
2018-11-27T22:15:44.883Z,15.00
2018-11-27T22:18:15.072Z,15.50
2018-11-27T22:20:44.450Z,16.57
2018-11-27T22:23:14.126Z,15.50
2018-11-27T22:25:43.422Z,15.53
2018-11-27T22:28:12.633Z,14.97
2018-11-27T22:30:42.125Z,16.33
2018-11-27T22:33:11.703Z,13.80
2018-11-27T22:35:41.032Z,15.10
2018-11-27T22:38:10.481Z,16.33
2018-11-27T22:40:40.114Z,15.63
2018-11-27T22:43:09.388Z,15.50
2018-11-27T22:45:39.713Z,13.80
2018-11-27T22:48:10.577Z,15.23
2018-11-27T22:50:39.937Z,15.93
2018-11-27T22:53:10.169Z,14.70
2018-11-27T22:55:39.755Z,14.80
2018-11-27T22:58:09.542Z,16.17
2018-11-27T23:00:44.176Z,16.73
2018-11-27T23:03:13.416Z,15.63
2018-11-27T23:05:42.865Z,15.30
2018-11-27T23:08:12.250Z,14.73
2018-11-27T23:10:42.685Z,15.60
2018-11-27T23:13:12.227Z,15.90
2018-11-27T23:15:41.771Z,15.80
2018-11-27T23:18:11.022Z,16.10
2018-11-27T23:20:40.297Z,17.27
2018-11-27T23:23:09.934Z,15.30
2018-11-27T23:25:39.288Z,17.70
2018-11-27T23:28:08.645Z,14.70
2018-11-27T23:30:38.439Z,15.37
2018-11-27T23:33:07.834Z,17.10
2018-11-27T23:35:37.183Z,16.33
2018-11-27T23:38:06.565Z,16.30
2018-11-27T23:40:36.145Z,15.23
2018-11-27T23:43:05.907Z,15.67
2018-11-27T23:45:35.425Z,16.10
2018-11-27T23:48:04.764Z,15.33
2018-11-27T23:50:34.183Z,17.33
2018-11-27T23:53:03.758Z,16.40
2018-11-27T23:55:33.391Z,14.03
2018-11-27T23:58:02.886Z,15.83
